Time;durP1;ratioP1;P1;durP2;ratioP2;P2;SDS_P1;SDS_P2;PMS_P1;PMS_P2;Temp;Humidity;BMP_temperature;BMP_pressure;BME280_temperature;BME280_humidity;BME280_pressure;Samples;Min_cycle;Max_cycle;Signal;HPM_P1;HPM_P2
2023/09/25 00:00:29;;;;;;;0.10;0.10;;;12.10;99.90;;;;;;4981140;28;20188;-81
2023/09/25 00:02:55;;;;;;;0.10;0.10;;;12.20;99.90;;;;;;4980849;28;20199;-81
2023/09/25 00:05:20;;;;;;;0.10;0.10;;;12.10;99.90;;;;;;4982561;28;20194;-81
2023/09/25 00:07:46;;;;;;;0.07;0.07;;;12.20;99.90;;;;;;4981964;28;20779;-81
2023/09/25 00:10:12;;;;;;;0.00;0.00;;;12.20;99.90;;;;;;4980680;28;20233;-81
2023/09/25 00:12:38;;;;;;;0.10;0.10;;;12.20;99.90;;;;;;4980500;28;20195;-81
2023/09/25 00:15:05;;;;;;;0.10;0.10;;;12.20;99.90;;;;;;4980961;28;20202;-81
2023/09/25 00:17:31;;;;;;;0.10;0.10;;;12.20;99.90;;;;;;4996876;28;20233;-81
2023/09/25 00:19:57;;;;;;;0.10;0.10;;;12.20;99.90;;;;;;4980867;28;20210;-81
2023/09/25 00:22:24;;;;;;;0.10;0.10;;;12.20;99.90;;;;;;4978651;28;20266;-81
2023/09/25 00:24:49;;;;;;;0.10;0.10;;;12.10;99.90;;;;;;4979860;28;20188;-81
2023/09/25 00:27:15;;;;;;;0.10;0.10;;;12.10;99.90;;;;;;4979341;28;20192;-81
2023/09/25 00:29:40;;;;;;;0.10;0.10;;;12.10;99.90;;;;;;4980084;28;20279;-81
2023/09/25 00:32:06;;;;;;;0.00;0.00;;;12.00;99.90;;;;;;4980577;28;20200;-81
2023/09/25 00:34:31;;;;;;;0.10;0.10;;;12.00;99.90;;;;;;4977401;28;20229;-81
2023/09/25 00:36:57;;;;;;;0.10;0.10;;;11.90;99.90;;;;;;4977611;28;20186;-81
2023/09/25 00:39:22;;;;;;;0.10;0.10;;;11.70;99.90;;;;;;4980540;28;20206;-81
2023/09/25 00:41:48;;;;;;;0.00;0.00;;;11.60;99.90;;;;;;4979270;28;20192;-81
2023/09/25 00:44:16;;;;;;;0.10;0.10;;;11.50;99.90;;;;;;4979621;28;20231;-81
2023/09/25 00:46:42;;;;;;;0.10;0.10;;;11.50;99.90;;;;;;4979380;28;20192;-81
2023/09/25 00:49:08;;;;;;;0.10;0.10;;;11.40;99.90;;;;;;4980907;28;20195;-81
2023/09/25 00:51:33;;;;;;;0.10;0.10;;;11.40;99.90;;;;;;4980114;28;20196;-81
2023/09/25 00:53:59;;;;;;;0.10;0.10;;;11.40;99.90;;;;;;4978640;28;20183;-81
2023/09/25 00:56:25;;;;;;;0.10;0.10;;;11.40;99.90;;;;;;4971126;28;20179;-81
2023/09/25 00:58:51;;;;;;;0.10;0.10;;;11.40;99.90;;;;;;4978610;28;20209;-81
2023/09/25 01:01:18;;;;;;;0.10;0.10;;;11.50;99.90;;;;;;4978545;28;20237;-81
2023/09/25 01:03:43;;;;;;;0.10;0.10;;;11.60;99.90;;;;;;4980400;28;20282;-81
2023/09/25 01:06:09;;;;;;;0.10;0.10;;;11.50;99.90;;;;;;4978782;28;20740;-81
2023/09/25 01:08:35;;;;;;;0.10;0.10;;;11.60;99.90;;;;;;4980424;28;21175;-81
2023/09/25 01:11:01;;;;;;;0.00;0.00;;;11.60;99.90;;;;;;4978904;28;20212;-82
2023/09/25 01:13:28;;;;;;;0.10;0.10;;;11.70;99.90;;;;;;4977735;28;20179;-81
2023/09/25 01:15:54;;;;;;;0.10;0.10;;;11.60;99.90;;;;;;4980719;28;20201;-81
2023/09/25 01:18:19;;;;;;;0.10;0.10;;;11.60;99.90;;;;;;4979537;28;20204;-81
2023/09/25 01:20:45;;;;;;;0.10;0.10;;;11.60;99.90;;;;;;4979035;28;20187;-81
2023/09/25 01:23:10;;;;;;;0.00;0.00;;;11.60;99.90;;;;;;4981136;28;20182;-81
2023/09/25 01:25:36;;;;;;;0.10;0.10;;;11.60;99.90;;;;;;4978466;28;20278;-81
2023/09/25 01:28:03;;;;;;;0.10;0.10;;;11.60;99.90;;;;;;4979225;28;20367;-81
2023/09/25 01:30:30;;;;;;;0.10;0.10;;;11.60;99.90;;;;;;4977903;28;20786;-81
2023/09/25 01:32:56;;;;;;;0.00;0.00;;;11.60;99.90;;;;;;4978996;28;20183;-81
2023/09/25 01:35:26;;;;;;;0.10;0.10;;;11.60;99.90;;;;;;4983333;28;20225;-81
2023/09/25 01:38:00;;;;;;;0.10;0.10;;;11.60;99.90;;;;;;4982759;28;20204;-81
2023/09/25 01:40:26;;;;;;;0.10;0.10;;;11.60;99.90;;;;;;4981851;28;20554;-81
2023/09/25 01:42:52;;;;;;;0.00;0.00;;;11.70;99.90;;;;;;4983464;28;20268;-81
2023/09/25 01:45:19;;;;;;;0.10;0.10;;;11.70;99.90;;;;;;4984535;28;20192;-81
2023/09/25 01:47:50;;;;;;;0.10;0.10;;;11.70;99.90;;;;;;4981687;28;20585;-81
2023/09/25 01:50:17;;;;;;;0.10;0.10;;;11.70;99.90;;;;;;4983951;28;20172;-81
2023/09/25 01:52:43;;;;;;;0.10;0.10;;;11.70;99.90;;;;;;4989683;28;20662;-81
2023/09/25 01:55:09;;;;;;;0.10;0.10;;;11.60;99.90;;;;;;4981329;28;20209;-81
2023/09/25 01:57:35;;;;;;;0.00;0.00;;;11.60;99.90;;;;;;4983561;28;20184;-81
2023/09/25 02:00:00;;;;;;;0.00;0.00;;;11.60;99.90;;;;;;4980692;28;20254;-81
2023/09/25 02:02:26;;;;;;;0.10;0.10;;;11.50;99.90;;;;;;4981028;28;20195;-81
2023/09/25 02:04:51;;;;;;;0.10;0.10;;;11.50;99.90;;;;;;4981430;28;20679;-81
2023/09/25 02:07:18;;;;;;;0.10;0.10;;;11.60;99.90;;;;;;4981145;28;20176;-80
2023/09/25 02:09:45;;;;;;;0.10;0.10;;;11.60;99.90;;;;;;4982283;28;20291;-81
2023/09/25 02:12:11;;;;;;;0.10;0.10;;;11.60;99.90;;;;;;4981255;28;20200;-81
2023/09/25 02:14:36;;;;;;;0.10;0.10;;;11.60;99.90;;;;;;4981346;28;20208;-81
2023/09/25 02:17:02;;;;;;;0.10;0.10;;;11.50;99.90;;;;;;4981378;28;20187;-81
2023/09/25 02:19:28;;;;;;;0.10;0.10;;;11.60;99.90;;;;;;4980896;28;20255;-81
2023/09/25 02:21:54;;;;;;;0.10;0.10;;;11.60;99.90;;;;;;4981596;28;20592;-81
2023/09/25 02:24:21;;;;;;;0.10;0.10;;;11.60;99.90;;;;;;4982911;28;20252;-81
2023/09/25 02:26:47;;;;;;;0.10;0.10;;;11.60;99.90;;;;;;4980614;28;20246;-81
2023/09/25 02:29:13;;;;;;;0.03;0.03;;;11.60;99.90;;;;;;4982869;28;20289;-81
2023/09/25 02:31:39;;;;;;;0.10;0.10;;;11.70;99.90;;;;;;4981267;28;20188;-81
2023/09/25 02:34:05;;;;;;;0.10;0.10;;;11.70;99.90;;;;;;4981064;28;20216;-81
2023/09/25 02:36:33;;;;;;;0.10;0.10;;;11.70;99.90;;;;;;4981624;28;20176;-81
2023/09/25 02:38:59;;;;;;;0.10;0.10;;;11.60;99.90;;;;;;4981214;28;20295;-81
2023/09/25 02:41:25;;;;;;;0.03;0.03;;;11.60;99.90;;;;;;4981035;28;20240;-81
2023/09/25 02:43:51;;;;;;;0.10;0.10;;;11.60;99.90;;;;;;4979819;28;20196;-81
2023/09/25 02:46:16;;;;;;;0.10;0.10;;;11.60;99.90;;;;;;4980985;28;20207;-81
2023/09/25 02:48:42;;;;;;;0.10;0.10;;;11.50;99.90;;;;;;4981334;28;20208;-81
2023/09/25 02:51:07;;;;;;;0.00;0.00;;;11.50;99.90;;;;;;4980825;28;20208;-81
2023/09/25 02:53:33;;;;;;;0.10;0.10;;;11.50;99.90;;;;;;4983094;28;20196;-81
2023/09/25 02:55:58;;;;;;;0.00;0.00;;;11.50;99.90;;;;;;4981905;28;20718;-81
2023/09/25 02:58:24;;;;;;;0.10;0.10;;;11.50;99.90;;;;;;4980971;28;20246;-80
2023/09/25 03:00:49;;;;;;;0.10;0.10;;;11.50;99.90;;;;;;4982623;28;20199;-80
2023/09/25 03:03:15;;;;;;;0.00;0.00;;;11.50;99.90;;;;;;4980745;28;20289;-81
2023/09/25 03:05:41;;;;;;;0.10;0.10;;;11.50;99.90;;;;;;4982141;28;20195;-81
2023/09/25 03:08:06;;;;;;;0.03;0.03;;;11.50;99.90;;;;;;4981510;28;20331;-81
2023/09/25 03:10:32;;;;;;;0.10;0.10;;;11.50;99.90;;;;;;4983266;28;20270;-81
2023/09/25 03:12:58;;;;;;;0.10;0.10;;;11.50;99.90;;;;;;4981166;28;20199;-81
2023/09/25 03:15:24;;;;;;;0.10;0.10;;;11.40;99.90;;;;;;4981519;28;20212;-81
2023/09/25 03:17:49;;;;;;;0.10;0.10;;;11.40;99.90;;;;;;4984228;28;20217;-81
2023/09/25 03:20:15;;;;;;;0.10;0.10;;;11.50;99.90;;;;;;4981676;28;20184;-81
2023/09/25 03:22:45;;;;;;;0.10;0.10;;;11.50;99.90;;;;;;4981958;28;20187;-81
2023/09/25 03:25:12;;;;;;;0.10;0.10;;;11.50;99.90;;;;;;4973019;28;20192;-81
2023/09/25 03:27:38;;;;;;;0.10;0.10;;;11.50;99.90;;;;;;4981789;28;20656;-81
2023/09/25 03:30:05;;;;;;;0.10;0.10;;;11.50;99.90;;;;;;4980100;28;20192;-81
2023/09/25 03:32:31;;;;;;;0.10;0.10;;;11.50;99.90;;;;;;4981650;28;20560;-81
2023/09/25 03:34:56;;;;;;;0.10;0.10;;;11.50;99.90;;;;;;4981548;28;20215;-81
2023/09/25 03:37:22;;;;;;;0.10;0.10;;;11.50;99.90;;;;;;4981248;28;20189;-81
2023/09/25 03:39:48;;;;;;;0.10;0.10;;;11.50;99.90;;;;;;4979742;28;20199;-81
2023/09/25 03:42:13;;;;;;;0.10;0.10;;;11.50;99.90;;;;;;4982029;28;20192;-81
2023/09/25 03:44:39;;;;;;;0.10;0.10;;;11.50;99.90;;;;;;4980742;28;20187;-81
2023/09/25 03:47:04;;;;;;;0.10;0.10;;;11.50;99.90;;;;;;4982163;28;20198;-81
2023/09/25 03:49:30;;;;;;;0.10;0.10;;;11.50;99.90;;;;;;4985477;28;20241;-81
2023/09/25 03:51:55;;;;;;;0.10;0.10;;;11.50;99.90;;;;;;4982790;28;20195;-81
2023/09/25 03:54:21;;;;;;;0.00;0.00;;;11.40;99.90;;;;;;4980840;28;20216;-81
2023/09/25 03:56:46;;;;;;;0.10;0.10;;;11.40;99.90;;;;;;4971515;28;20664;-81
2023/09/25 03:59:12;;;;;;;0.00;0.00;;;11.40;99.90;;;;;;4980065;28;20216;-81
2023/09/25 04:01:37;;;;;;;0.10;0.10;;;11.40;99.90;;;;;;4979355;28;20187;-81
2023/09/25 04:04:03;;;;;;;0.10;0.10;;;11.30;99.90;;;;;;4977507;28;20223;-81
2023/09/25 04:06:29;;;;;;;0.10;0.10;;;11.30;99.90;;;;;;4979133;28;20186;-81
2023/09/25 04:08:54;;;;;;;0.10;0.10;;;11.30;99.90;;;;;;4980378;28;20250;-81
2023/09/25 04:11:20;;;;;;;0.07;0.07;;;11.30;99.90;;;;;;4981083;28;20687;-80
2023/09/25 04:13:47;;;;;;;0.10;0.10;;;11.40;99.90;;;;;;4980887;28;20710;-81
2023/09/25 04:16:14;;;;;;;0.10;0.10;;;11.30;99.90;;;;;;4978743;28;20258;-81
2023/09/25 04:18:40;;;;;;;0.10;0.10;;;11.40;99.90;;;;;;4979773;28;20203;-80
2023/09/25 04:21:06;;;;;;;0.00;0.00;;;11.40;99.90;;;;;;4979295;28;20198;-80
2023/09/25 04:23:32;;;;;;;0.10;0.10;;;11.30;99.90;;;;;;4984372;28;20211;-81
2023/09/25 04:26:00;;;;;;;0.10;0.10;;;11.20;99.90;;;;;;4978750;28;20669;-81
2023/09/25 04:28:28;;;;;;;0.10;0.10;;;11.00;99.90;;;;;;4979943;28;20204;-81
2023/09/25 04:30:54;;;;;;;0.03;0.03;;;10.70;99.90;;;;;;4978198;28;20603;-81
2023/09/25 04:33:20;;;;;;;0.10;0.10;;;10.80;99.90;;;;;;4977478;28;20247;-81
2023/09/25 04:35:46;;;;;;;0.10;0.10;;;10.80;99.90;;;;;;4978939;28;20684;-81
2023/09/25 04:38:12;;;;;;;0.07;0.07;;;10.80;99.90;;;;;;4981280;28;20201;-81
2023/09/25 04:40:38;;;;;;;0.10;0.10;;;10.80;99.90;;;;;;4977698;28;20199;-81
2023/09/25 04:43:03;;;;;;;0.10;0.10;;;10.80;99.90;;;;;;4980020;28;20266;-82
2023/09/25 04:45:29;;;;;;;0.00;0.00;;;10.70;99.90;;;;;;4978379;28;20786;-81
2023/09/25 04:47:55;;;;;;;0.00;0.00;;;10.50;99.90;;;;;;4978518;28;20223;-81
2023/09/25 04:50:23;;;;;;;0.10;0.10;;;10.50;99.90;;;;;;4979657;28;20187;-81
2023/09/25 04:52:48;;;;;;;0.00;0.00;;;10.50;99.90;;;;;;4979627;28;20180;-81
2023/09/25 04:55:14;;;;;;;0.10;0.10;;;10.60;99.90;;;;;;4978921;28;20583;-81
2023/09/25 04:57:41;;;;;;;0.10;0.10;;;10.70;99.90;;;;;;4978494;28;20202;-81
2023/09/25 05:00:13;;;;;;;0.00;0.00;;;10.80;99.90;;;;;;4977917;28;20181;-80
2023/09/25 05:02:39;;;;;;;0.10;0.10;;;10.80;99.90;;;;;;4987599;28;20200;-80
2023/09/25 05:05:05;;;;;;;0.00;0.00;;;10.80;99.90;;;;;;4980267;28;20215;-80
2023/09/25 05:07:31;;;;;;;0.10;0.10;;;10.80;99.90;;;;;;4982181;28;20211;-80
2023/09/25 05:09:56;;;;;;;0.10;0.10;;;10.80;99.90;;;;;;4980936;28;20682;-80
2023/09/25 05:12:24;;;;;;;0.10;0.10;;;10.80;99.90;;;;;;4981391;28;20191;-81
2023/09/25 05:14:50;;;;;;;0.10;0.10;;;10.80;99.90;;;;;;4977751;28;20291;-81
2023/09/25 05:17:15;;;;;;;0.10;0.10;;;10.80;99.90;;;;;;4976244;28;20274;-82
2023/09/25 05:19:41;;;;;;;0.07;0.07;;;10.90;99.90;;;;;;4979305;28;21110;-80
2023/09/25 05:22:07;;;;;;;0.10;0.10;;;10.90;99.90;;;;;;4980022;28;20179;-81
2023/09/25 05:24:32;;;;;;;0.10;0.10;;;10.90;99.90;;;;;;4978080;28;20211;-80
2023/09/25 05:26:58;;;;;;;0.10;0.10;;;10.70;99.90;;;;;;4982045;28;20222;-81
2023/09/25 05:29:23;;;;;;;0.10;0.10;;;10.50;99.90;;;;;;4978683;28;20211;-80
2023/09/25 05:31:49;;;;;;;0.00;0.00;;;10.50;99.90;;;;;;4979795;28;20191;-80
2023/09/25 05:34:14;;;;;;;0.10;0.10;;;10.50;99.90;;;;;;4979954;28;20215;-80
2023/09/25 05:36:40;;;;;;;0.10;0.10;;;10.40;99.90;;;;;;4985352;28;20195;-80
2023/09/25 05:39:08;;;;;;;0.00;0.00;;;10.40;99.90;;;;;;4981154;28;20271;-80
2023/09/25 05:41:33;;;;;;;0.10;0.10;;;10.40;99.90;;;;;;4982251;28;20194;-79
2023/09/25 05:43:59;;;;;;;0.10;0.10;;;10.50;99.90;;;;;;4986536;28;20180;-80
2023/09/25 05:46:25;;;;;;;0.10;0.10;;;10.50;99.90;;;;;;4991455;28;20727;-79
2023/09/25 05:48:53;;;;;;;0.10;0.10;;;10.50;99.90;;;;;;4988920;28;20242;-79
2023/09/25 05:51:19;;;;;;;0.10;0.10;;;10.50;99.90;;;;;;4979205;28;20184;-80
2023/09/25 05:53:44;;;;;;;0.10;0.10;;;10.50;99.90;;;;;;4979885;28;20231;-80
2023/09/25 05:56:10;;;;;;;0.10;0.10;;;10.70;99.90;;;;;;4978350;28;20745;-80
2023/09/25 05:58:37;;;;;;;0.10;0.10;;;10.80;99.90;;;;;;4977920;28;20211;-80
2023/09/25 06:01:03;;;;;;;0.00;0.00;;;11.00;99.90;;;;;;4980226;28;20188;-80
2023/09/25 06:03:28;;;;;;;0.10;0.10;;;11.20;99.90;;;;;;4978061;28;20201;-80
2023/09/25 06:05:54;;;;;;;0.10;0.10;;;11.40;99.90;;;;;;4973944;28;20184;-80
2023/09/25 06:08:19;;;;;;;0.10;0.10;;;11.60;99.90;;;;;;4981389;28;20289;-80
2023/09/25 06:10:45;;;;;;;0.00;0.00;;;11.70;99.90;;;;;;4984084;28;20196;-80
2023/09/25 06:13:11;;;;;;;0.10;0.10;;;11.70;99.90;;;;;;4978782;28;20412;-80
2023/09/25 06:15:37;;;;;;;0.10;0.10;;;11.80;99.90;;;;;;4980373;28;20351;-80
2023/09/25 06:18:09;;;;;;;0.10;0.10;;;11.80;99.90;;;;;;4978797;28;20851;-80
2023/09/25 06:20:39;;;;;;;0.10;0.10;;;11.90;99.90;;;;;;4986711;28;20234;-80
2023/09/25 06:23:05;;;;;;;0.03;0.03;;;11.90;99.90;;;;;;4984798;28;20215;-80
2023/09/25 06:25:32;;;;;;;0.10;0.10;;;11.90;99.90;;;;;;4983210;28;20198;-80
2023/09/25 06:27:57;;;;;;;0.10;0.10;;;11.90;99.90;;;;;;4983823;28;21064;-80
2023/09/25 06:30:24;;;;;;;0.10;0.10;;;11.90;99.90;;;;;;4979726;28;20199;-80
2023/09/25 06:32:49;;;;;;;0.10;0.10;;;12.00;99.90;;;;;;4977751;28;20202;-79
2023/09/25 06:35:15;;;;;;;0.10;0.10;;;12.00;99.90;;;;;;4977314;28;20200;-79
2023/09/25 06:37:41;;;;;;;0.10;0.10;;;12.10;99.90;;;;;;4980132;28;20199;-79
2023/09/25 06:40:09;;;;;;;0.00;0.00;;;12.10;99.90;;;;;;4982533;28;20184;-79
2023/09/25 06:42:38;;;;;;;0.10;0.10;;;12.30;99.90;;;;;;4980847;28;20202;-79
2023/09/25 06:45:04;;;;;;;0.10;0.10;;;12.50;99.90;;;;;;4981966;28;20318;-79
2023/09/25 06:47:32;;;;;;;0.10;0.10;;;12.60;99.90;;;;;;4981334;28;20181;-79
2023/09/25 06:49:57;;;;;;;0.10;0.10;;;12.70;99.90;;;;;;4980094;28;21107;-79
2023/09/25 06:52:23;;;;;;;0.10;0.10;;;12.90;99.90;;;;;;4980798;28;20187;-79
2023/09/25 06:54:48;;;;;;;0.10;0.10;;;13.00;99.90;;;;;;4981041;28;20211;-79
2023/09/25 06:57:14;;;;;;;0.10;0.10;;;13.20;99.90;;;;;;4980543;28;20187;-79
2023/09/25 06:59:39;;;;;;;0.10;0.10;;;13.30;99.90;;;;;;4982282;28;20226;-79
2023/09/25 07:02:05;;;;;;;0.07;0.07;;;13.50;99.90;;;;;;4977476;28;20202;-79
2023/09/25 07:04:32;;;;;;;0.07;0.07;;;13.60;99.90;;;;;;4981943;28;20191;-81
2023/09/25 07:06:57;;;;;;;0.07;0.07;;;13.60;99.90;;;;;;4979808;28;20207;-81
2023/09/25 07:09:23;;;;;;;0.10;0.10;;;13.70;99.90;;;;;;4981376;28;20200;-80
2023/09/25 07:11:49;;;;;;;0.10;0.10;;;13.80;99.90;;;;;;4979821;28;20275;-79
2023/09/25 07:14:15;;;;;;;0.10;0.10;;;13.90;99.90;;;;;;4980312;28;20243;-79
2023/09/25 07:16:40;;;;;;;0.10;0.10;;;14.00;99.90;;;;;;4981220;28;20278;-80
2023/09/25 07:19:08;;;;;;;0.10;0.10;;;14.10;99.90;;;;;;4980225;28;20222;-82
2023/09/25 07:21:35;;;;;;;0.10;0.10;;;14.20;99.90;;;;;;4980089;28;20279;-80
2023/09/25 07:24:01;;;;;;;0.10;0.10;;;14.50;99.90;;;;;;4980448;28;20196;-80
2023/09/25 07:26:27;;;;;;;0.10;0.10;;;14.90;99.90;;;;;;4979241;28;20194;-80
2023/09/25 07:28:52;;;;;;;0.07;0.07;;;14.90;99.90;;;;;;4977722;28;20770;-81
2023/09/25 07:31:19;;;;;;;0.10;0.10;;;15.20;99.90;;;;;;4996654;28;20722;-80
2023/09/25 07:33:45;;;;;;;0.10;0.10;;;15.60;99.90;;;;;;4980495;28;20268;-79
2023/09/25 07:36:11;;;;;;;0.10;0.10;;;15.50;99.90;;;;;;4980586;28;20246;-78
2023/09/25 07:38:36;;;;;;;0.10;0.10;;;15.70;99.90;;;;;;4980651;28;20231;-78
2023/09/25 07:41:02;;;;;;;0.10;0.10;;;15.70;99.90;;;;;;4980694;28;20192;-78
2023/09/25 07:43:29;;;;;;;0.10;0.10;;;16.10;99.90;;;;;;4982285;28;20211;-80
2023/09/25 07:45:55;;;;;;;0.10;0.10;;;16.20;99.90;;;;;;4980132;28;20194;-80
2023/09/25 07:48:21;;;;;;;0.10;0.10;;;16.10;99.90;;;;;;4982726;28;20216;-80
2023/09/25 07:50:47;;;;;;;0.10;0.10;;;16.00;99.90;;;;;;4982349;28;20180;-79
2023/09/25 07:53:13;;;;;;;0.10;0.10;;;15.80;99.90;;;;;;4983014;28;20180;-80
2023/09/25 07:55:42;;;;;;;0.10;0.10;;;15.90;99.90;;;;;;4984277;28;20207;-79
2023/09/25 07:58:08;;;;;;;0.10;0.10;;;16.20;99.90;;;;;;4985844;28;20683;-79
2023/09/25 08:00:39;;;;;;;0.10;0.10;;;16.50;99.90;;;;;;4987169;28;20218;-80
2023/09/25 08:03:06;;;;;;;0.10;0.10;;;16.20;99.90;;;;;;4987251;28;20195;-80
2023/09/25 08:05:32;;;;;;;0.10;0.10;;;16.30;99.90;;;;;;4983676;28;20201;-79
2023/09/25 08:07:58;;;;;;;0.10;0.10;;;16.70;99.90;;;;;;4981989;28;20203;-79
2023/09/25 08:10:24;;;;;;;0.10;0.10;;;16.90;99.90;;;;;;4979589;28;20187;-79
2023/09/25 08:12:49;;;;;;;0.10;0.10;;;17.20;99.90;;;;;;4979433;28;20188;-79
2023/09/25 08:15:15;;;;;;;0.10;0.10;;;17.40;99.90;;;;;;4981996;28;20279;-80
2023/09/25 08:17:44;;;;;;;0.10;0.10;;;17.60;99.90;;;;;;4981115;28;20188;-79
2023/09/25 08:20:17;;;;;;;0.10;0.10;;;17.70;99.90;;;;;;4980548;28;20220;-79
2023/09/25 08:22:44;;;;;;;0.10;0.10;;;17.90;99.90;;;;;;4989503;28;20168;-79
2023/09/25 08:25:09;;;;;;;0.10;0.10;;;18.00;99.90;;;;;;4990388;28;20180;-79
2023/09/25 08:27:41;;;;;;;0.10;0.10;;;17.80;99.90;;;;;;4990750;28;20269;-80
2023/09/25 08:30:08;;;;;;;0.10;0.10;;;18.10;99.90;;;;;;4989398;28;20184;-80
2023/09/25 08:32:34;;;;;;;0.10;0.10;;;18.40;99.90;;;;;;4992298;28;20192;-79
2023/09/25 08:35:00;;;;;;;0.10;0.10;;;18.50;99.90;;;;;;4992766;28;20207;-79
2023/09/25 08:37:26;;;;;;;0.10;0.10;;;18.50;99.90;;;;;;4991395;28;20180;-79
2023/09/25 08:39:52;;;;;;;0.10;0.10;;;18.20;99.90;;;;;;4988217;28;20195;-79
2023/09/25 08:42:21;;;;;;;0.10;0.10;;;18.10;99.90;;;;;;4985239;28;20929;-80
2023/09/25 08:44:52;;;;;;;0.10;0.10;;;18.20;99.90;;;;;;4981889;28;20191;-80
2023/09/25 08:47:22;;;;;;;0.10;0.10;;;18.40;99.90;;;;;;4982838;28;20192;-80
2023/09/25 08:49:52;;;;;;;0.10;0.10;;;18.30;99.90;;;;;;4990788;28;20204;-80
2023/09/25 08:52:20;;;;;;;0.10;0.10;;;18.70;99.90;;;;;;4980523;28;20207;-80
2023/09/25 08:54:46;;;;;;;0.10;0.10;;;18.70;99.90;;;;;;4981899;28;20292;-80
2023/09/25 08:57:12;;;;;;;0.10;0.10;;;18.80;99.90;;;;;;4981575;28;20219;-80
2023/09/25 08:59:41;;;;;;;0.10;0.10;;;19.10;99.90;;;;;;4978950;28;20607;-80
2023/09/25 09:02:08;;;;;;;0.10;0.10;;;18.90;99.90;;;;;;4987607;28;20791;-80
2023/09/25 09:04:35;;;;;;;0.10;0.10;;;18.90;99.90;;;;;;4980881;28;20533;-80
2023/09/25 09:07:01;;;;;;;0.10;0.10;;;18.90;99.90;;;;;;4980820;28;20202;-80
2023/09/25 09:09:26;;;;;;;0.10;0.10;;;18.90;99.90;;;;;;4974479;28;21247;-80
2023/09/25 09:11:52;;;;;;;0.10;0.10;;;19.30;99.90;;;;;;4979940;28;20204;-79
2023/09/25 09:14:34;;;;;;;0.10;0.10;;;19.30;99.90;;;;;;4969921;28;20658;-80
2023/09/25 09:17:00;;;;;;;0.10;0.10;;;18.60;99.90;;;;;;4978734;28;20171;-80
2023/09/25 09:19:26;;;;;;;0.10;0.10;;;18.80;99.90;;;;;;4980386;28;20200;-80
2023/09/25 09:22:08;;;;;;;0.10;0.10;;;19.10;99.90;;;;;;4977123;28;20187;-80
2023/09/25 09:24:37;;;;;;;0.10;0.10;;;19.40;99.90;;;;;;4993795;28;20280;-80
2023/09/25 09:27:09;;;;;;;0.10;0.10;;;19.20;99.90;;;;;;4981247;28;20642;-80
2023/09/25 09:29:45;;;;;;;0.10;0.10;;;18.30;99.90;;;;;;4977690;28;20211;-80
2023/09/25 09:32:11;;;;;;;0.10;0.10;;;18.40;99.90;;;;;;4980043;28;20583;-80
2023/09/25 09:34:41;;;;;;;0.10;0.10;;;18.80;99.90;;;;;;4977254;28;20698;-80
2023/09/25 09:37:09;;;;;;;0.10;0.10;;;18.90;99.90;;;;;;4978945;28;20628;-80
2023/09/25 09:39:37;;;;;;;0.10;0.10;;;19.40;99.90;;;;;;4993068;28;20564;-81
2023/09/25 09:42:08;;;;;;;0.10;0.10;;;19.70;99.90;;;;;;4993241;28;20187;-80
2023/09/25 09:44:35;;;;;;;0.10;0.10;;;19.90;99.90;;;;;;4979152;28;20198;-81
2023/09/25 09:47:06;;;;;;;0.10;0.10;;;19.90;99.90;;;;;;4982719;28;20187;-80
2023/09/25 09:49:35;;;;;;;0.10;0.10;;;19.70;99.90;;;;;;4988149;28;20333;-81
2023/09/25 09:52:02;;;;;;;0.10;0.10;;;19.50;99.90;;;;;;4987869;28;20207;-80
2023/09/25 09:54:32;;;;;;;0.10;0.10;;;19.90;99.90;;;;;;4980962;28;20192;-80
2023/09/25 09:56:59;;;;;;;0.10;0.10;;;19.70;99.90;;;;;;4982881;28;20191;-80
2023/09/25 09:59:25;;;;;;;0.10;0.10;;;19.60;99.90;;;;;;4983648;28;20205;-81
2023/09/25 10:01:51;;;;;;;0.10;0.10;;;20.10;99.90;;;;;;4981293;28;20183;-80
2023/09/25 10:04:17;;;;;;;0.10;0.10;;;20.40;99.90;;;;;;4981018;28;20189;-81
2023/09/25 10:06:48;;;;;;;0.10;0.10;;;20.50;99.90;;;;;;4980775;28;20247;-80
2023/09/25 10:09:15;;;;;;;0.10;0.10;;;20.60;99.90;;;;;;4983768;28;20192;-80
2023/09/25 10:11:52;;;;;;;0.10;0.10;;;20.60;99.90;;;;;;4978456;28;20246;-80
2023/09/25 10:14:22;;;;;;;0.10;0.10;;;20.40;99.90;;;;;;4999749;28;20214;-80
2023/09/25 10:17:02;;;;;;;0.10;0.10;;;20.60;99.90;;;;;;4982044;28;20390;-81
2023/09/25 10:19:47;;;;;;;0.10;0.10;;;20.80;99.90;;;;;;4980678;28;20211;-81
2023/09/25 10:22:18;;;;;;;0.10;0.10;;;21.00;99.90;;;;;;4997341;28;20180;-80
2023/09/25 10:24:45;;;;;;;0.10;0.10;;;21.00;99.90;;;;;;4987682;28;20192;-81
2023/09/25 10:27:11;;;;;;;0.10;0.10;;;21.20;99.90;;;;;;4988193;28;20191;-80
2023/09/25 10:29:38;;;;;;;0.10;0.10;;;21.10;99.90;;;;;;4991278;28;20717;-80
2023/09/25 10:32:09;;;;;;;0.10;0.10;;;20.50;99.90;;;;;;4987798;28;20187;-80
2023/09/25 10:34:38;;;;;;;0.10;0.10;;;20.80;99.90;;;;;;4984916;28;20216;-80
2023/09/25 10:37:04;;;;;;;0.10;0.10;;;20.10;99.90;;;;;;4988261;28;20184;-80
2023/09/25 10:39:29;;;;;;;0.10;0.10;;;19.70;99.90;;;;;;4984562;28;20208;-80
2023/09/25 10:42:01;;;;;;;0.10;0.10;;;19.60;99.90;;;;;;4986304;28;20230;-81
2023/09/25 10:44:28;;;;;;;0.10;0.10;;;19.50;99.90;;;;;;5001210;28;20171;-81
2023/09/25 10:46:54;;;;;;;0.10;0.10;;;19.60;99.90;;;;;;4984706;28;20235;-80
2023/09/25 10:49:19;;;;;;;0.10;0.10;;;19.60;99.90;;;;;;4982728;28;20591;-81
2023/09/25 10:51:46;;;;;;;0.10;0.10;;;19.50;99.90;;;;;;4982422;28;20184;-80
2023/09/25 10:54:12;;;;;;;0.10;0.10;;;19.90;99.90;;;;;;4981839;28;20180;-81
2023/09/25 10:56:37;;;;;;;0.10;0.10;;;20.20;99.90;;;;;;4977734;28;20258;-81
2023/09/25 10:59:04;;;;;;;0.10;0.10;;;20.50;99.90;;;;;;4981737;28;20211;-80
2023/09/25 11:01:31;;;;;;;0.10;0.10;;;20.70;99.90;;;;;;4983622;28;20187;-80
2023/09/25 11:03:59;;;;;;;0.10;0.10;;;21.10;99.90;;;;;;4980094;28;20330;-80
2023/09/25 11:06:25;;;;;;;0.10;0.10;;;21.30;99.90;;;;;;4978157;28;20180;-80
2023/09/25 11:09:16;;;;;;;0.10;0.10;;;21.50;99.90;;;;;;4980852;28;20252;-80
2023/09/25 11:11:42;;;;;;;0.10;0.10;;;21.50;99.90;;;;;;4982965;28;20191;-80
2023/09/25 11:14:08;;;;;;;0.10;0.10;;;21.30;99.90;;;;;;4984045;28;20180;-81
2023/09/25 11:16:34;;;;;;;0.10;0.10;;;21.50;99.90;;;;;;4981414;28;20290;-81
2023/09/25 11:19:11;;;;;;;0.10;0.10;;;21.40;99.90;;;;;;4984333;28;20204;-81
2023/09/25 11:21:38;;;;;;;0.10;0.10;;;21.30;99.90;;;;;;4981915;28;20179;-81
2023/09/25 11:24:06;;;;;;;0.10;0.10;;;21.40;99.90;;;;;;4981975;28;20212;-81
2023/09/25 11:26:36;;;;;;;0.10;0.10;;;21.40;99.90;;;;;;4983085;28;20188;-81
2023/09/25 11:29:04;;;;;;;0.10;0.10;;;21.20;99.90;;;;;;4983804;28;20196;-81
2023/09/25 11:31:30;;;;;;;0.10;0.10;;;21.30;99.90;;;;;;4980346;28;20193;-80
2023/09/25 11:33:56;;;;;;;0.10;0.10;;;21.70;99.90;;;;;;4982975;28;20181;-81
2023/09/25 11:36:21;;;;;;;0.10;0.10;;;21.60;99.90;;;;;;4982198;28;20705;-81
2023/09/25 11:38:50;;;;;;;0.10;0.10;;;21.10;99.90;;;;;;4979277;28;20755;-81
2023/09/25 11:41:16;;;;;;;0.10;0.10;;;20.60;99.90;;;;;;4985295;28;20176;-81
2023/09/25 11:43:42;;;;;;;0.10;0.10;;;20.70;99.90;;;;;;4982324;28;20187;-80
2023/09/25 11:46:07;;;;;;;0.10;0.10;;;21.20;99.90;;;;;;4981214;28;20182;-81
2023/09/25 11:48:36;;;;;;;0.10;0.10;;;21.40;99.90;;;;;;4981670;28;20303;-80
2023/09/25 11:51:01;;;;;;;0.10;0.10;;;21.50;99.90;;;;;;4979714;28;20187;-81
2023/09/25 11:53:27;;;;;;;0.10;0.10;;;21.30;99.90;;;;;;4980445;28;20218;-81
2023/09/25 11:55:53;;;;;;;0.10;0.10;;;20.70;99.90;;;;;;4979371;28;20619;-81
2023/09/25 11:58:19;;;;;;;0.10;0.10;;;21.10;99.90;;;;;;4979951;28;20302;-80
2023/09/25 12:00:45;;;;;;;0.10;0.10;;;21.10;99.90;;;;;;4981519;28;20278;-81
2023/09/25 12:03:11;;;;;;;0.10;0.10;;;21.40;99.90;;;;;;4994529;28;20884;-81
2023/09/25 12:05:36;;;;;;;0.10;0.10;;;21.10;99.90;;;;;;4979700;28;20207;-80
2023/09/25 12:08:04;;;;;;;0.10;0.10;;;20.90;99.90;;;;;;4981101;28;20210;-81
2023/09/25 12:10:37;;;;;;;0.10;0.10;;;21.60;99.90;;;;;;4980726;28;20176;-81
2023/09/25 12:13:03;;;;;;;0.10;0.10;;;21.70;99.90;;;;;;4979611;28;20180;-81
2023/09/25 12:15:29;;;;;;;0.10;0.10;;;22.10;99.60;;;;;;4980354;28;20203;-81
2023/09/25 12:17:54;;;;;;;0.10;0.10;;;22.20;99.50;;;;;;4979315;28;20207;-81
2023/09/25 12:20:21;;;;;;;0.10;0.10;;;22.20;99.90;;;;;;4977224;28;20188;-81
2023/09/25 12:22:50;;;;;;;0.10;0.10;;;22.30;99.90;;;;;;4978367;28;20298;-81
2023/09/25 12:25:16;;;;;;;0.10;0.10;;;22.20;99.00;;;;;;4979596;28;20915;-81
2023/09/25 12:27:44;;;;;;;0.10;0.10;;;22.60;99.20;;;;;;4981609;28;20180;-81
2023/09/25 12:30:11;;;;;;;0.10;0.10;;;22.70;98.60;;;;;;4979779;28;20275;-81
2023/09/25 12:32:37;;;;;;;0.10;0.10;;;22.80;99.00;;;;;;4979154;28;20188;-81
2023/09/25 12:35:07;;;;;;;0.10;0.10;;;22.90;98.80;;;;;;4980084;28;20242;-80
2023/09/25 12:37:33;;;;;;;0.10;0.10;;;23.10;98.60;;;;;;4977871;28;20215;-81
2023/09/25 12:40:00;;;;;;;0.10;0.10;;;23.20;98.20;;;;;;4978043;28;20643;-81
2023/09/25 12:42:26;;;;;;;0.10;0.10;;;23.10;98.10;;;;;;4983354;28;20176;-81
2023/09/25 12:44:51;;;;;;;0.10;0.10;;;23.10;98.50;;;;;;4994858;28;20208;-81